createdAt,value
2022-08-09T00:00:04.555Z,98871.22
2022-08-09T00:01:10.291Z,98874.81
2022-08-09T00:02:12.236Z,98869.22
2022-08-09T00:04:00.848Z,98874.38
2022-08-09T00:04:36.408Z,98873.06
2022-08-09T00:06:16.561Z,98855.75
2022-08-09T00:07:00.819Z,98875.34
2022-08-09T00:08:04.709Z,98869.75
2022-08-09T00:09:12.754Z,98861.75
2022-08-09T00:10:21.573Z,98868.94
2022-08-09T00:11:55.092Z,98864.63
2022-08-09T00:12:51.607Z,98865.72
2022-08-09T00:13:55.502Z,98862.25
2022-08-09T00:14:57.529Z,98864.13
2022-08-09T00:16:08.229Z,98864.13
2022-08-09T00:18:04.561Z,98876.00
2022-08-09T00:18:36.730Z,98868.53
2022-08-09T00:19:38.755Z,98851.41
2022-08-09T00:20:49.730Z,98876.63
2022-08-09T00:21:55.860Z,98871.22
2022-08-09T00:22:58.655Z,98871.22
2022-08-09T00:24:11.726Z,98853.59
2022-08-09T00:25:23.447Z,98860.50
2022-08-09T00:26:33.750Z,98864.28
2022-08-09T00:27:36.092Z,98852.06
2022-08-09T00:28:39.725Z,98866.78
2022-08-09T00:30:16.578Z,98865.19
2022-08-09T00:31:57.173Z,98864.69
2022-08-09T00:32:26.680Z,98865.25
2022-08-09T00:33:49.015Z,98868.25
2022-08-09T00:34:52.133Z,98870.53
2022-08-09T00:35:55.268Z,98868.16
2022-08-09T00:36:57.756Z,98864.00
2022-08-09T00:38:00.590Z,98851.31
2022-08-09T00:39:04.823Z,98821.47
2022-08-09T00:40:13.460Z,98843.69
2022-08-09T00:44:10.786Z,98852.06
2022-08-09T00:44:13.224Z,98858.09
2022-08-09T00:44:20.650Z,98854.03
2022-08-09T00:45:27.995Z,98857.66
2022-08-09T00:46:57.891Z,98857.06
2022-08-09T00:47:51.402Z,98853.34
2022-08-09T00:48:54.538Z,98854.97
2022-08-09T00:49:58.745Z,98847.38
2022-08-09T00:51:11.744Z,98849.00
2022-08-09T00:52:16.025Z,98857.88
2022-08-09T00:53:32.621Z,98856.81
2022-08-09T00:54:38.096Z,98854.38
2022-08-09T00:56:04.084Z,98863.00
2022-08-09T00:57:08.878Z,98859.22
2022-08-09T00:58:14.677Z,98840.25
2022-08-09T00:59:31.637Z,98842.16
2022-08-09T01:00:44.018Z,98865.41
2022-08-09T01:01:48.560Z,98865.97
2022-08-09T01:03:14.709Z,98866.72
2022-08-09T01:04:42.025Z,98861.03
2022-08-09T01:06:17.874Z,98864.53
2022-08-09T01:07:37.995Z,98864.66
2022-08-09T01:09:12.001Z,98865.16
2022-08-09T01:10:16.638Z,98859.25
2022-08-09T01:11:18.799Z,98870.94
2022-08-09T01:13:03.644Z,98867.72
2022-08-09T01:14:29.028Z,98851.91
2022-08-09T01:15:40.856Z,98816.88
2022-08-09T01:16:47.243Z,98863.34
2022-08-09T01:18:05.041Z,98864.75
2022-08-09T01:19:28.955Z,98853.88
2022-08-09T01:20:49.981Z,98859.47
2022-08-09T01:22:16.606Z,98867.06
2022-08-09T01:24:03.495Z,98860.88
2022-08-09T01:25:27.177Z,98861.16
2022-08-09T01:26:53.034Z,98857.09
2022-08-09T01:27:57.942Z,98860.88
2022-08-09T01:29:01.920Z,98857.88
2022-08-09T01:30:08.367Z,98866.47
2022-08-09T01:32:29.207Z,98853.50
2022-08-09T01:32:56.073Z,98839.16
2022-08-09T01:34:03.126Z,98850.38
2022-08-09T01:35:29.176Z,98855.81
2022-08-09T01:36:33.752Z,98851.19
2022-08-09T01:38:05.853Z,98855.47
2022-08-09T01:39:02.807Z,98848.22
2022-08-09T01:40:07.538Z,98855.47
2022-08-09T01:41:19.369Z,98858.47
2022-08-09T01:42:29.745Z,98853.88
2022-08-09T01:43:42.225Z,98851.47
2022-08-09T01:44:55.064Z,98839.25
2022-08-09T01:45:58.230Z,98835.00
2022-08-09T01:47:02.517Z,98846.84
2022-08-09T01:48:06.106Z,98846.28
2022-08-09T01:49:14.983Z,98846.53
2022-08-09T01:50:17.332Z,98847.31
2022-08-09T01:51:22.690Z,98846.81
2022-08-09T01:52:26.137Z,98839.81
2022-08-09T01:53:41.293Z,98838.63
2022-08-09T01:54:50.936Z,98837.53
2022-08-09T01:55:54.338Z,98844.31
2022-08-09T01:56:58.672Z,98839.94
2022-08-09T01:58:07.781Z,98839.34
2022-08-09T01:59:16.345Z,98844.31
2022-08-09T02:00:34.876Z,98840.28
2022-08-09T02:01:59.898Z,98840.47
2022-08-09T02:03:05.327Z,98843.38
2022-08-09T02:04:09.917Z,98842.00
2022-08-09T02:05:15.768Z,98837.63
2022-08-09T02:06:45.387Z,98843.16
2022-08-09T02:08:35.903Z,98847.97
2022-08-09T02:09:16.703Z,98844.19
2022-08-09T02:10:28.548Z,98850.38
2022-08-09T02:11:41.994Z,98843.91
2022-08-09T02:12:47.380Z,98845.00
2022-08-09T02:14:06.398Z,98843.91
2022-08-09T02:15:15.440Z,98839.47
2022-08-09T02:16:18.974Z,98835.47
2022-08-09T02:18:00.594Z,98827.91
2022-08-09T02:19:00.544Z,98834.91
2022-08-09T02:20:02.632Z,98847.25
2022-08-09T02:21:17.340Z,98849.44
2022-08-09T02:22:38.742Z,98849.44
2022-08-09T02:23:49.752Z,98839.25
2022-08-09T02:24:58.781Z,98855.34
2022-08-09T02:26:02.581Z,98840.41
2022-08-09T02:27:09.502Z,98859.13
2022-08-09T02:28:20.012Z,98858.44
2022-08-09T02:29:27.562Z,98861.81
2022-08-09T02:30:43.380Z,98863.75
2022-08-09T02:31:49.911Z,98850.94
2022-08-09T02:32:53.298Z,98858.47
2022-08-09T02:34:07.298Z,98856.59
2022-08-09T02:35:46.335Z,98858.19
2022-08-09T02:36:46.807Z,98854.41
2022-08-09T02:38:00.468Z,98860.03
2022-08-09T02:39:07.308Z,98861.72
2022-08-09T02:40:26.846Z,98854.91
2022-08-09T02:41:36.839Z,98848.81
2022-08-09T02:42:41.410Z,98843.44
2022-08-09T02:43:54.814Z,98844.81
2022-08-09T02:45:03.236Z,98857.22
2022-08-09T02:46:09.309Z,98840.06
2022-08-09T02:47:13.864Z,98847.59
2022-08-09T02:48:19.494Z,98841.97
2022-08-09T02:49:43.372Z,98849.09
2022-08-09T02:50:55.764Z,98844.75
2022-08-09T02:52:00.811Z,98853.28
2022-08-09T02:53:25.875Z,98851.06
2022-08-09T02:54:30.336Z,98840.59
2022-08-09T02:55:53.680Z,98836.81
2022-08-09T02:57:01.884Z,98845.16
2022-08-09T02:58:36.849Z,98841.91
2022-08-09T03:00:20.871Z,98842.97
2022-08-09T03:01:06.250Z,98831.78
2022-08-09T03:02:17.002Z,98850.38
2022-08-09T03:03:21.484Z,98844.19
2022-08-09T03:04:26.205Z,98843.06
2022-08-09T03:05:34.429Z,98841.91
2022-08-09T03:06:37.030Z,98838.09
2022-08-09T03:07:40.715Z,98845.31
2022-08-09T03:08:57.846Z,98818.50
2022-08-09T03:10:00.702Z,98838.00
2022-08-09T03:11:04.695Z,98842.28
2022-08-09T03:12:13.513Z,98847.72
2022-08-09T03:13:16.996Z,98848.50
2022-08-09T03:14:21.840Z,98844.50
2022-08-09T03:15:40.505Z,98833.28
2022-08-09T03:16:53.942Z,98837.22
2022-08-09T03:17:58.831Z,98843.41
2022-08-09T03:19:02.121Z,98841.78
2022-08-09T03:20:11.445Z,98833.19
2022-08-09T03:21:17.028Z,98824.06
2022-08-09T03:22:25.648Z,98830.50
2022-08-09T03:23:32.561Z,98837.19
2022-08-09T03:24:51.683Z,98851.09
2022-08-09T03:25:58.092Z,98840.72
2022-08-09T03:27:07.240Z,98854.03
2022-08-09T03:28:11.253Z,98858.84
2022-08-09T03:29:22.803Z,98833.41
2022-08-09T03:30:29.759Z,98859.38
2022-08-09T03:31:42.743Z,98849.31
2022-08-09T03:33:00.676Z,98861.56
2022-08-09T03:34:03.326Z,98859.66
2022-08-09T03:35:14.791Z,98861.81
2022-08-09T03:36:27.262Z,98858.78
2022-08-09T03:37:55.547Z,98859.53
2022-08-09T03:38:51.880Z,98848.47
2022-08-09T03:39:56.481Z,98853.81
2022-08-09T03:40:58.558Z,98853.22
2022-08-09T03:42:06.779Z,98856.41
2022-08-09T03:43:08.857Z,98853.13
2022-08-09T03:44:13.269Z,98854.16
2022-08-09T03:45:17.356Z,98847.75
2022-08-09T03:46:39.341Z,98844.50
2022-08-09T03:47:44.086Z,98843.63
2022-08-09T03:49:03.987Z,98856.25
2022-08-09T03:50:12.542Z,98825.06
2022-08-09T03:51:55.660Z,98845.53
2022-08-09T03:52:38.790Z,98852.72
2022-08-09T03:53:41.883Z,98852.63
2022-08-09T03:54:45.117Z,98834.56
2022-08-09T03:55:47.626Z,98847.53
2022-08-09T03:56:50.398Z,98841.19
2022-08-09T03:58:06.497Z,98833.69
2022-08-09T03:59:21.032Z,98848.28
2022-08-09T04:00:29.710Z,98854.09
2022-08-09T04:01:32.272Z,98845.94
2022-08-09T04:02:34.928Z,98846.34
2022-08-09T04:04:00.335Z,98848.09
2022-08-09T04:05:06.746Z,98850.84
2022-08-09T04:06:19.290Z,98853.34
2022-08-09T04:07:22.790Z,98848.66
2022-08-09T04:08:46.621Z,98848.72
2022-08-09T04:09:52.920Z,98839.66
2022-08-09T04:10:55.541Z,98846.16
2022-08-09T04:12:29.875Z,98849.63
2022-08-09T04:14:37.305Z,98839.63
2022-08-09T04:15:01.679Z,98839.94
2022-08-09T04:16:19.423Z,98845.16
2022-08-09T04:17:22.774Z,98830.91
2022-08-09T04:18:25.071Z,98829.94
2022-08-09T04:19:42.689Z,98831.81
2022-08-09T04:20:48.768Z,98823.97
2022-08-09T04:21:50.520Z,98831.88
2022-08-09T04:22:54.545Z,98826.88
2022-08-09T04:23:57.831Z,98821.22
2022-08-09T04:25:00.115Z,98818.75
2022-08-09T04:26:03.282Z,98822.00
2022-08-09T04:27:05.036Z,98811.41
2022-08-09T04:28:10.601Z,98810.81
2022-08-09T04:29:15.581Z,98812.44
2022-08-09T04:30:20.669Z,98809.94
2022-08-09T04:31:26.310Z,98812.84
2022-08-09T04:32:40.134Z,98813.50
2022-08-09T04:33:52.761Z,98812.59
2022-08-09T04:34:57.529Z,98793.16
2022-08-09T04:35:59.509Z,98818.19
2022-08-09T04:37:02.184Z,98816.63
2022-08-09T04:38:03.943Z,98809.75
2022-08-09T04:39:08.897Z,98816.16
2022-08-09T04:40:11.808Z,98806.09
2022-08-09T04:41:24.009Z,98814.34
2022-08-09T04:42:29.752Z,98809.53
2022-08-09T04:43:33.566Z,98815.25
2022-08-09T04:44:37.508Z,98819.72
2022-08-09T04:45:53.319Z,98820.47
2022-08-09T04:46:58.454Z,98817.53
2022-08-09T04:48:09.894Z,98815.28
2022-08-09T04:49:14.503Z,98815.72
2022-08-09T04:50:16.852Z,98820.81
2022-08-09T04:51:21.547Z,98818.19
2022-08-09T04:52:28.825Z,98826.44
2022-08-09T04:53:32.271Z,98823.31
2022-08-09T04:54:36.107Z,98823.41
2022-08-09T04:55:57.452Z,98816.50
2022-08-09T04:57:00.322Z,98822.16
2022-08-09T04:58:09.430Z,98826.53
2022-08-09T04:59:13.165Z,98832.28
2022-08-09T05:00:17.578Z,98831.34
2022-08-09T05:01:19.725Z,98828.38
2022-08-09T05:02:23.944Z,98834.34
2022-08-09T05:03:41.304Z,98822.50
2022-08-09T05:04:45.518Z,98827.84
2022-08-09T05:05:52.003Z,98831.97
2022-08-09T05:07:06.041Z,98831.06
2022-08-09T05:08:07.794Z,98821.72
2022-08-09T05:09:09.902Z,98818.66
2022-08-09T05:10:14.896Z,98832.63
2022-08-09T05:11:16.597Z,98831.00
2022-08-09T05:12:18.665Z,98826.75
2022-08-09T05:13:24.345Z,98830.00
2022-08-09T05:14:31.510Z,98834.28
2022-08-09T05:15:39.089Z,98826.97
2022-08-09T05:16:58.928Z,98831.91
2022-08-09T05:18:42.728Z,98831.66
2022-08-09T05:19:25.821Z,98832.91
2022-08-09T05:20:29.878Z,98830.69
2022-08-09T05:21:36.665Z,98835.41
2022-08-09T05:23:54.082Z,98842.16
2022-08-09T05:24:12.422Z,98823.03
2022-08-09T05:25:16.378Z,98827.06
2022-08-09T05:26:36.365Z,98828.13
2022-08-09T05:27:46.646Z,98837.19
2022-08-09T05:28:50.030Z,98825.47
2022-08-09T05:29:54.124Z,98829.34
2022-08-09T05:30:56.120Z,98830.16
2022-08-09T05:32:03.002Z,98839.16
2022-08-09T05:33:09.457Z,98826.16
2022-08-09T05:34:16.349Z,98835.44
2022-08-09T05:35:18.846Z,98832.63
2022-08-09T05:36:28.860Z,98836.97
2022-08-09T05:37:30.747Z,98816.34
2022-08-09T05:38:46.943Z,98829.69
2022-08-09T05:39:48.861Z,98814.41
2022-08-09T05:40:52.172Z,98813.34
2022-08-09T05:41:53.916Z,98827.81
2022-08-09T05:42:56.907Z,98832.00
2022-08-09T05:43:59.235Z,98834.47
2022-08-09T05:45:01.145Z,98817.22
2022-08-09T05:46:03.896Z,98839.88
2022-08-09T05:47:06.142Z,98829.69
2022-08-09T05:48:08.346Z,98836.53
2022-08-09T05:49:19.114Z,98836.22
2022-08-09T05:50:50.653Z,98832.84
2022-08-09T05:51:54.886Z,98838.97
2022-08-09T05:52:56.676Z,98841.09
2022-08-09T05:53:59.558Z,98836.84
2022-08-09T05:55:03.133Z,98836.59
2022-08-09T05:56:09.327Z,98838.66
2022-08-09T05:57:19.129Z,98840.75
2022-08-09T05:58:21.139Z,98843.97
2022-08-09T05:59:23.110Z,98827.06
2022-08-09T06:00:30.179Z,98844.34
2022-08-09T06:01:33.851Z,98844.81
2022-08-09T06:02:36.364Z,98835.41
2022-08-09T06:03:58.457Z,98837.78
2022-08-09T06:05:00.917Z,98842.94
2022-08-09T06:06:05.895Z,98849.75
2022-08-09T06:07:08.294Z,98837.72
2022-08-09T06:08:11.439Z,98836.63
2022-08-09T06:09:41.127Z,98834.31
2022-08-09T06:10:40.981Z,98837.09
2022-08-09T06:11:57.182Z,98835.41
2022-08-09T06:13:03.072Z,98841.03
2022-08-09T06:14:13.753Z,98844.25
2022-08-09T06:15:15.538Z,98837.59
2022-08-09T06:16:17.990Z,98823.41
2022-08-09T06:17:19.770Z,98837.25
2022-08-09T06:18:25.082Z,98827.38
2022-08-09T06:19:27.810Z,98836.38
2022-08-09T06:20:30.180Z,98841.88
2022-08-09T06:21:32.060Z,98835.94
2022-08-09T06:22:34.339Z,98824.22
2022-08-09T06:23:57.271Z,98831.75
2022-08-09T06:24:58.144Z,98832.16
2022-08-09T06:26:00.383Z,98832.16
2022-08-09T06:27:03.203Z,98821.13
2022-08-09T06:28:05.555Z,98829.44
2022-08-09T06:29:08.338Z,98826.59
2022-08-09T06:30:17.030Z,98815.00
2022-08-09T06:31:19.824Z,98825.25
2022-08-09T06:32:59.929Z,98825.97
2022-08-09T06:33:55.104Z,98819.59
2022-08-09T06:34:56.856Z,98831.47
2022-08-09T06:35:59.166Z,98823.19
2022-08-09T06:37:00.913Z,98826.41
2022-08-09T06:38:06.751Z,98819.28
2022-08-09T06:39:11.787Z,98828.41
2022-08-09T06:40:17.783Z,98822.50
2022-08-09T06:41:58.881Z,98828.06
2022-08-09T06:42:47.623Z,98813.06
2022-08-09T06:43:49.780Z,98815.81
2022-08-09T06:44:55.489Z,98821.22
2022-08-09T06:46:05.885Z,98826.66
2022-08-09T06:47:09.708Z,98814.50
2022-08-09T06:48:12.322Z,98818.91
2022-08-09T06:49:29.163Z,98822.78
2022-08-09T06:50:40.263Z,98823.22
2022-08-09T06:51:43.185Z,98809.47
2022-08-09T06:52:48.685Z,98825.63
2022-08-09T06:53:50.708Z,98822.50
2022-08-09T06:54:54.926Z,98819.81
2022-08-09T06:55:57.162Z,98821.38
2022-08-09T06:56:58.934Z,98823.84
2022-08-09T06:58:04.410Z,98824.66
2022-08-09T07:00:52.250Z,98815.28
2022-08-09T07:00:55.906Z,98820.75
2022-08-09T07:01:59.609Z,98821.91
2022-08-09T07:03:06.317Z,98814.00
2022-08-09T07:04:08.142Z,98818.69
2022-08-09T07:05:12.188Z,98814.75
2022-08-09T07:06:14.008Z,98825.88
2022-08-09T07:07:28.519Z,98813.25
2022-08-09T07:08:39.472Z,98825.84
2022-08-09T07:09:56.051Z,98819.53
2022-08-09T07:11:03.667Z,98826.25
2022-08-09T07:12:06.082Z,98827.41
2022-08-09T07:13:27.732Z,98819.25
2022-08-09T07:14:29.570Z,98820.50
2022-08-09T07:16:36.070Z,98818.50
2022-08-09T07:16:57.907Z,98831.97
2022-08-09T07:18:02.441Z,98827.72
2022-08-09T07:19:04.774Z,98830.47
2022-08-09T07:20:08.064Z,98832.03
2022-08-09T07:21:10.376Z,98821.84
2022-08-09T07:22:13.192Z,98827.31
2022-08-09T07:23:18.467Z,98821.75
2022-08-09T07:24:21.463Z,98827.69
2022-08-09T07:25:42.728Z,98822.56
2022-08-09T07:26:45.352Z,98820.97
2022-08-09T07:27:53.151Z,98834.66
2022-08-09T07:29:01.260Z,98829.44
2022-08-09T07:30:14.639Z,98834.84
2022-08-09T07:31:16.749Z,98834.38
2022-08-09T07:32:18.463Z,98833.19
2022-08-09T07:33:24.771Z,98832.44
2022-08-09T07:34:26.569Z,98834.50
2022-08-09T07:35:28.615Z,98834.59
2022-08-09T07:36:32.553Z,98839.34
2022-08-09T07:37:43.172Z,98838.13
2022-08-09T07:38:52.572Z,98832.91
2022-08-09T07:40:00.066Z,98834.88
2022-08-09T07:41:11.694Z,98839.47
2022-08-09T07:42:15.365Z,98835.13
2022-08-09T07:43:19.154Z,98830.84
2022-08-09T07:44:50.824Z,98841.56
2022-08-09T07:45:52.773Z,98836.84
2022-08-09T07:46:54.493Z,98837.88
2022-08-09T07:48:01.497Z,98838.56
2022-08-09T07:49:06.308Z,98845.72
2022-08-09T07:50:10.105Z,98843.31
2022-08-09T07:52:04.980Z,98836.16
2022-08-09T07:52:35.653Z,98832.75
2022-08-09T07:54:05.798Z,98842.94
2022-08-09T07:55:01.131Z,98834.97
2022-08-09T07:56:26.754Z,98834.66
2022-08-09T07:57:33.886Z,98836.34
2022-08-09T07:58:37.773Z,98836.59
2022-08-09T07:59:52.145Z,98834.88
2022-08-09T08:01:10.998Z,98827.13
2022-08-09T08:02:19.427Z,98819.34
2022-08-09T08:03:21.944Z,98838.34
2022-08-09T08:04:32.154Z,98840.03
2022-08-09T08:05:54.232Z,98815.72
2022-08-09T08:07:00.102Z,98832.69
2022-08-09T08:09:01.276Z,98827.97
2022-08-09T08:09:38.435Z,98841.47
2022-08-09T08:11:03.160Z,98837.66
2022-08-09T08:12:09.953Z,98831.38
2022-08-09T08:13:27.103Z,98827.25
2022-08-09T08:14:41.686Z,98822.22
2022-08-09T08:15:43.481Z,98822.78
2022-08-09T08:17:00.382Z,98828.28
2022-08-09T08:18:06.886Z,98822.72
2022-08-09T08:19:08.853Z,98828.13
2022-08-09T08:20:12.587Z,98820.22
2022-08-09T08:21:15.254Z,98821.38
2022-08-09T08:22:17.288Z,98828.78
2022-08-09T08:23:27.250Z,98820.75
2022-08-09T08:24:35.168Z,98820.50
2022-08-09T08:25:46.241Z,98823.94
2022-08-09T08:26:56.225Z,98822.50
2022-08-09T08:27:58.828Z,98824.38
2022-08-09T08:29:00.606Z,98806.94
2022-08-09T08:30:05.507Z,98829.41
2022-08-09T08:31:13.716Z,98817.38
2022-08-09T08:32:24.360Z,98821.53
2022-08-09T08:33:52.034Z,98832.59
2022-08-09T08:34:55.395Z,98824.88
2022-08-09T08:36:03.560Z,98828.31
2022-08-09T08:37:05.746Z,98816.56
2022-08-09T08:38:11.336Z,98825.25
2022-08-09T08:39:14.071Z,98816.31
2022-08-09T08:40:19.611Z,98821.19
2022-08-09T08:41:22.229Z,98822.38
2022-08-09T08:42:32.109Z,98821.19
2022-08-09T08:43:34.730Z,98804.97
2022-08-09T08:44:38.154Z,98816.34
2022-08-09T08:46:00.125Z,98810.66
2022-08-09T08:47:15.082Z,98814.09
2022-08-09T08:48:19.605Z,98816.91
2022-08-09T08:49:22.612Z,98811.81
2022-08-09T08:50:40.235Z,98813.31
2022-08-09T08:52:00.239Z,98809.53
2022-08-09T08:53:04.175Z,98811.63
2022-08-09T08:54:10.258Z,98805.47
2022-08-09T08:55:23.598Z,98802.56
2022-08-09T08:56:28.179Z,98806.84
2022-08-09T08:57:30.352Z,98805.06
2022-08-09T08:58:37.771Z,98800.22
2022-08-09T08:59:46.650Z,98796.56
2022-08-09T09:00:54.262Z,98794.41
2022-08-09T09:01:59.913Z,98792.28
2022-08-09T09:03:12.374Z,98782.38
2022-08-09T09:04:31.966Z,98791.81
2022-08-09T09:05:58.288Z,98791.91
2022-08-09T09:07:07.926Z,98786.47
2022-08-09T09:08:30.388Z,98788.28
2022-08-09T09:09:58.704Z,98778.13
2022-08-09T09:10:58.141Z,98784.97
2022-08-09T09:12:00.634Z,98784.97
2022-08-09T09:13:09.514Z,98783.16
2022-08-09T09:14:22.677Z,98770.56
2022-08-09T09:15:28.491Z,98780.28
2022-08-09T09:16:33.644Z,98778.47
2022-08-09T09:17:48.248Z,98772.72
2022-08-09T09:19:15.725Z,98763.59
2022-08-09T09:20:17.414Z,98773.59
2022-08-09T09:21:26.343Z,98776.28
2022-08-09T09:22:29.542Z,98772.44
2022-08-09T09:23:49.783Z,98781.50
2022-08-09T09:26:01.588Z,98776.63
2022-08-09T09:26:26.203Z,98779.94
2022-08-09T09:28:06.447Z,98776.47
2022-08-09T09:29:04.051Z,98767.91
2022-08-09T09:30:40.029Z,98774.00
2022-08-09T09:32:03.301Z,98758.22
2022-08-09T09:33:16.116Z,98761.50
2022-08-09T09:34:18.913Z,98768.38
2022-08-09T09:35:20.701Z,98759.09
2022-08-09T09:36:22.676Z,98763.78
2022-08-09T09:37:32.282Z,98759.19
2022-08-09T09:38:46.558Z,98749.63
2022-08-09T09:39:56.771Z,98752.13
2022-08-09T09:40:59.012Z,98757.59
2022-08-09T09:42:08.909Z,98759.97
2022-08-09T09:43:20.572Z,98754.47
2022-08-09T09:44:34.687Z,98751.41
2022-08-09T09:45:57.345Z,98749.81
2022-08-09T09:47:16.771Z,98748.50
2022-08-09T09:48:23.808Z,98758.63
2022-08-09T09:49:56.395Z,98749.69
2022-08-09T09:50:52.545Z,98748.00
2022-08-09T09:52:03.831Z,98749.66
2022-08-09T09:53:10.594Z,98747.72
2022-08-09T09:54:21.102Z,98752.09
2022-08-09T09:55:32.281Z,98752.50
2022-08-09T09:56:53.317Z,98757.91
2022-08-09T09:58:18.826Z,98752.28
2022-08-09T09:59:35.502Z,98749.47
2022-08-09T10:00:55.148Z,98740.56
2022-08-09T10:02:01.969Z,98740.22
2022-08-09T10:03:09.192Z,98748.06
2022-08-09T10:04:22.878Z,98748.38
2022-08-09T10:06:00.724Z,98744.34
2022-08-09T10:06:54.696Z,98733.19
2022-08-09T10:08:26.921Z,98738.19
2022-08-09T10:09:27.833Z,98722.91
2022-08-09T10:10:31.703Z,98725.72
2022-08-09T10:11:58.987Z,98724.34
2022-08-09T10:12:56.112Z,98716.78
2022-08-09T10:13:58.335Z,98728.78
2022-08-09T10:15:17.284Z,98721.88
2022-08-09T10:16:58.139Z,98723.13
2022-08-09T10:17:56.286Z,98725.97
2022-08-09T10:19:07.822Z,98743.91
2022-08-09T10:20:27.531Z,98741.28
2022-08-09T10:21:36.044Z,98725.59
2022-08-09T10:22:39.388Z,98718.94
2022-08-09T10:23:43.141Z,98732.75
2022-08-09T10:24:44.962Z,98745.38
2022-08-09T10:26:06.625Z,98738.97
2022-08-09T10:27:17.383Z,98737.06
2022-08-09T10:28:29.528Z,98738.53
2022-08-09T10:30:41.823Z,98737.72
2022-08-09T10:34:11.424Z,98732.34
2022-08-09T10:35:04.256Z,98750.91
2022-08-09T10:36:11.531Z,98745.75
2022-08-09T10:37:13.964Z,98726.16
2022-08-09T10:38:55.061Z,98742.81
2022-08-09T10:39:40.537Z,98744.41
2022-08-09T10:40:50.643Z,98731.31
2022-08-09T10:41:52.502Z,98737.69
2022-08-09T10:42:57.244Z,98738.13
2022-08-09T10:44:02.030Z,98738.94
2022-08-09T10:45:11.813Z,98743.66
2022-08-09T10:46:29.487Z,98740.88
2022-08-09T10:48:19.531Z,98744.81
2022-08-09T10:49:14.185Z,98748.81
2022-08-09T10:50:49.529Z,98736.28
2022-08-09T10:52:20.652Z,98731.94
2022-08-09T10:53:39.487Z,98739.75
2022-08-09T10:54:53.291Z,98740.44
2022-08-09T10:56:17.647Z,98739.78
2022-08-09T10:57:36.320Z,98736.97
2022-08-09T10:58:39.894Z,98733.75
2022-08-09T10:59:57.370Z,98731.94
2022-08-09T11:03:02.113Z,98742.97
2022-08-09T11:03:15.336Z,98736.31
2022-08-09T11:04:19.673Z,98729.78
2022-08-09T11:05:31.842Z,98727.50
2022-08-09T11:06:37.282Z,98741.31
2022-08-09T11:07:57.085Z,98745.28
2022-08-09T11:09:15.911Z,98743.34
2022-08-09T11:10:41.162Z,98732.16
2022-08-09T11:11:55.174Z,98723.19
2022-08-09T11:13:49.412Z,98720.88
2022-08-09T11:14:57.363Z,98716.59
2022-08-09T11:16:37.338Z,98728.81
2022-08-09T11:17:41.758Z,98735.91
2022-08-09T11:18:46.157Z,98711.47
2022-08-09T11:20:11.134Z,98717.34
2022-08-09T11:21:56.844Z,98724.88
2022-08-09T11:23:02.875Z,98731.88
2022-08-09T11:24:10.667Z,98727.84
2022-08-09T11:25:15.809Z,98723.53
2022-08-09T11:26:54.961Z,98720.25
2022-08-09T11:28:08.399Z,98729.69
2022-08-09T11:30:05.892Z,98726.56
2022-08-09T11:31:43.523Z,98735.47
2022-08-09T11:33:16.923Z,98737.44
2022-08-09T11:34:28.451Z,98730.63
2022-08-09T11:35:54.495Z,98726.72
2022-08-09T11:36:59.258Z,98718.19
2022-08-09T11:38:18.720Z,98720.19
2022-08-09T11:39:20.544Z,98723.75
2022-08-09T11:40:31.876Z,98720.63
2022-08-09T11:41:38.536Z,98723.38
2022-08-09T11:42:43.624Z,98724.09
2022-08-09T11:43:52.190Z,98698.84
2022-08-09T11:44:57.327Z,98720.25
2022-08-09T11:46:04.934Z,98714.00
2022-08-09T11:47:11.061Z,98711.22
2022-08-09T11:48:31.784Z,98717.09
2022-08-09T11:50:56.318Z,98727.22
2022-08-09T11:53:02.126Z,98710.63
2022-08-09T11:53:15.819Z,98713.16
2022-08-09T11:54:33.135Z,98714.16
2022-08-09T11:55:53.471Z,98717.63
2022-08-09T11:57:47.620Z,98716.66
2022-08-09T11:59:00.439Z,98702.56
2022-08-09T12:00:13.012Z,98714.97
2022-08-09T12:01:37.622Z,98717.59
2022-08-09T12:02:42.591Z,98721.28
2022-08-09T12:03:57.137Z,98699.28
2022-08-09T12:04:59.866Z,98712.34
2022-08-09T12:06:09.479Z,98705.19
2022-08-09T12:07:14.127Z,98717.53
2022-08-09T12:08:21.628Z,98710.13
2022-08-09T12:09:33.672Z,98705.38
2022-08-09T12:10:39.720Z,98716.41
2022-08-09T12:12:02.213Z,98705.47
2022-08-09T12:14:10.106Z,98711.09
2022-08-09T12:14:40.666Z,98709.22
2022-08-09T12:16:03.264Z,98712.00
2022-08-09T12:17:34.142Z,98716.78
2022-08-09T12:18:30.986Z,98703.84
2022-08-09T12:19:33.205Z,98699.13
2022-08-09T12:20:36.900Z,98707.44
2022-08-09T12:21:48.802Z,98705.09
2022-08-09T12:22:56.569Z,98695.66
2022-08-09T12:24:09.163Z,98687.00
2022-08-09T12:25:14.941Z,98700.47
2022-08-09T12:26:25.857Z,98698.06
2022-08-09T12:28:59.954Z,98697.28
2022-08-09T12:29:10.224Z,98690.25
2022-08-09T12:30:35.580Z,98678.41
2022-08-09T12:32:02.278Z,98682.34
2022-08-09T12:33:02.788Z,98677.97
2022-08-09T12:34:04.560Z,98698.50
2022-08-09T12:35:12.327Z,98697.69
2022-08-09T12:36:31.543Z,98692.63
2022-08-09T12:37:50.447Z,98689.84
2022-08-09T12:38:54.903Z,98686.59
2022-08-09T12:40:10.939Z,98686.50
2022-08-09T12:41:13.334Z,98690.72
2022-08-09T12:42:16.281Z,98689.88
2022-08-09T12:44:06.841Z,98691.69
2022-08-09T12:44:46.504Z,98687.19
2022-08-09T12:46:00.283Z,98691.31
2022-08-09T12:47:02.678Z,98677.47
2022-08-09T12:48:20.418Z,98683.81
2022-08-09T12:49:33.791Z,98690.97
2022-08-09T12:50:37.224Z,98680.78
2022-08-09T12:52:00.005Z,98673.34
2022-08-09T12:53:17.593Z,98681.69
2022-08-09T12:54:22.015Z,98674.75
2022-08-09T12:56:13.022Z,98681.84
2022-08-09T12:56:54.685Z,98681.94
2022-08-09T12:57:59.031Z,98680.47
2022-08-09T12:59:13.960Z,98677.75
2022-08-09T13:00:25.446Z,98676.97
2022-08-09T13:01:28.294Z,98674.28
2022-08-09T13:02:45.518Z,98680.53
2022-08-09T13:03:58.898Z,98670.25
2022-08-09T13:05:02.473Z,98665.59
2022-08-09T13:06:13.555Z,98669.53
2022-08-09T13:07:19.358Z,98665.59
2022-08-09T13:08:40.011Z,98667.13
2022-08-09T13:09:45.474Z,98660.44
2022-08-09T13:11:00.771Z,98660.03
2022-08-09T13:12:15.162Z,98660.06
2022-08-09T13:14:01.027Z,98661.66
2022-08-09T13:15:04.071Z,98665.22
2022-08-09T13:16:12.111Z,98656.19
2022-08-09T13:17:43.718Z,98654.59
2022-08-09T13:18:44.362Z,98659.34
2022-08-09T13:20:09.414Z,98645.94
2022-08-09T13:22:36.327Z,98649.13
2022-08-09T13:23:05.677Z,98648.41
2022-08-09T13:24:44.482Z,98650.78
2022-08-09T13:25:54.734Z,98651.56
2022-08-09T13:26:58.808Z,98646.06
2022-08-09T13:28:09.950Z,98651.56
2022-08-09T13:29:15.271Z,98644.00
2022-08-09T13:30:50.883Z,98647.53
2022-08-09T13:32:20.233Z,98654.59
2022-08-09T13:33:24.027Z,98645.91
2022-08-09T13:34:30.999Z,98629.81
2022-08-09T13:36:23.496Z,98645.59
2022-08-09T13:36:58.481Z,98644.88
2022-08-09T13:38:00.411Z,98643.69
2022-08-09T13:41:20.855Z,98638.22
2022-08-09T13:41:52.252Z,98628.41
2022-08-09T13:41:57.881Z,98630.38
2022-08-09T13:43:04.888Z,98635.88
2022-08-09T13:44:07.069Z,98633.50
2022-08-09T13:45:12.215Z,98627.22
2022-08-09T13:47:16.549Z,98629.22
2022-08-09T13:47:48.826Z,98631.56
2022-08-09T13:48:53.694Z,98626.44
2022-08-09T13:50:01.015Z,98633.53
2022-08-09T13:51:03.422Z,98620.50
2022-08-09T13:52:08.995Z,98613.41
2022-08-09T13:53:11.492Z,98615.34
2022-08-09T13:54:13.742Z,98622.03
2022-08-09T13:55:17.580Z,98618.13
2022-08-09T13:56:19.617Z,98620.47